createdAt,value
2019-03-30T00:00:10.779Z,102205.47
2019-03-30T00:01:15.668Z,102206.59
2019-03-30T00:02:17.898Z,102201.00
2019-03-30T00:03:20.273Z,102200.63
2019-03-30T00:04:22.482Z,102199.32
2019-03-30T00:05:24.723Z,102204.54
2019-03-30T00:06:26.923Z,102195.03
2019-03-30T00:07:29.183Z,102199.32
2019-03-30T00:08:31.409Z,102189.26
2019-03-30T00:09:33.636Z,102193.92
2019-03-30T00:10:35.956Z,102191.87
2019-03-30T00:11:38.168Z,102198.39
2019-03-30T00:12:43.163Z,102196.70
2019-03-30T00:13:45.389Z,102194.10
2019-03-30T00:14:47.587Z,102195.78
2019-03-30T00:15:49.813Z,102187.02
2019-03-30T00:16:52.043Z,102190.94
2019-03-30T00:17:54.303Z,102192.24
2019-03-30T00:18:56.503Z,102190.56
2019-03-30T00:19:58.722Z,102186.09
2019-03-30T00:21:00.946Z,102190.02
2019-03-30T00:22:03.163Z,102190.94
2019-03-30T00:23:05.406Z,102192.24
2019-03-30T00:24:07.625Z,102183.86
2019-03-30T00:25:09.839Z,102183.66
2019-03-30T00:26:13.762Z,102180.88
2019-03-30T00:27:16.005Z,102173.05
2019-03-30T00:28:18.233Z,102175.66
2019-03-30T00:29:20.451Z,102174.73
2019-03-30T00:30:23.875Z,102176.59
2019-03-30T00:31:26.095Z,102173.98
2019-03-30T00:32:28.335Z,102170.44
2019-03-30T00:33:30.579Z,102172.13
2019-03-30T00:34:32.801Z,102168.20
2019-03-30T00:35:35.014Z,102173.98
2019-03-30T00:36:37.224Z,102175.28
2019-03-30T00:37:39.459Z,102176.59
2019-03-30T00:38:41.678Z,102171.74
2019-03-30T00:39:43.908Z,102169.13
2019-03-30T00:40:46.119Z,102165.59
2019-03-30T00:41:48.365Z,102167.45
2019-03-30T00:42:50.617Z,102162.61
2019-03-30T00:43:52.826Z,102160.38
2019-03-30T00:44:55.109Z,102161.69
2019-03-30T00:45:57.336Z,102166.14
2019-03-30T00:46:59.543Z,102159.07
2019-03-30T00:48:01.825Z,102160.93
2019-03-30T00:49:04.253Z,102159.07
2019-03-30T00:50:06.452Z,102155.16
2019-03-30T00:51:10.239Z,102158.14
2019-03-30T00:52:12.482Z,102157.22
2019-03-30T00:53:14.740Z,102156.46
2019-03-30T00:54:16.963Z,102159.83
2019-03-30T00:55:19.179Z,102159.07
2019-03-30T00:56:21.385Z,102156.84
2019-03-30T00:57:23.639Z,102159.07
2019-03-30T00:58:25.947Z,102153.48
2019-03-30T00:59:28.271Z,102152.92
2019-03-30T01:00:30.486Z,102155.16
2019-03-30T01:01:32.699Z,102153.30
2019-03-30T01:02:34.929Z,102159.07
2019-03-30T01:03:37.125Z,102151.63
2019-03-30T01:04:39.368Z,102154.23
2019-03-30T01:05:41.621Z,102153.86
2019-03-30T01:06:43.874Z,102155.16
2019-03-30T01:07:46.078Z,102148.63
2019-03-30T01:08:50.232Z,102142.48
2019-03-30T01:09:52.189Z,102142.86
2019-03-30T01:10:54.410Z,102145.47
2019-03-30T01:11:56.631Z,102148.08
2019-03-30T01:12:58.856Z,102146.40
2019-03-30T01:14:01.140Z,102147.70
2019-03-30T01:15:03.373Z,102145.09
2019-03-30T01:16:05.588Z,102141.56
2019-03-30T01:17:07.994Z,102141.56
2019-03-30T01:18:10.239Z,102138.95
2019-03-30T01:19:12.443Z,102133.36
2019-03-30T01:20:14.665Z,102129.27
2019-03-30T01:21:16.904Z,102136.72
2019-03-30T01:22:19.125Z,102134.48
2019-03-30T01:23:24.146Z,102132.25
2019-03-30T01:24:26.344Z,102136.72
2019-03-30T01:25:28.574Z,102132.05
2019-03-30T01:26:31.673Z,102135.03
2019-03-30T01:27:33.892Z,102129.81
2019-03-30T01:28:36.116Z,102126.66
2019-03-30T01:29:38.339Z,102124.05
2019-03-30T01:30:40.553Z,102121.81
2019-03-30T01:31:43.699Z,102124.05
2019-03-30T01:32:45.907Z,102122.74
2019-03-30T01:33:48.157Z,102120.13
2019-03-30T01:34:50.369Z,102117.52
2019-03-30T01:35:52.640Z,102108.39
2019-03-30T01:36:54.848Z,102111.55
2019-03-30T01:37:57.069Z,102110.63
2019-03-30T01:38:59.305Z,102106.53
2019-03-30T01:40:01.519Z,102100.94
2019-03-30T01:41:03.738Z,102099.25
2019-03-30T01:42:05.955Z,102099.63
2019-03-30T01:43:08.177Z,102095.72
2019-03-30T01:44:10.529Z,102097.02
2019-03-30T01:45:12.750Z,102094.04
2019-03-30T01:46:14.984Z,102099.63
2019-03-30T01:47:17.199Z,102099.63
2019-03-30T01:48:19.402Z,102094.41
2019-03-30T01:49:21.641Z,102091.80
2019-03-30T01:50:23.992Z,102090.50
2019-03-30T01:51:26.224Z,102095.72
2019-03-30T01:52:28.428Z,102094.04
2019-03-30T01:53:30.656Z,102089.20
2019-03-30T01:54:32.881Z,102090.87
2019-03-30T01:55:35.210Z,102088.64
2019-03-30T01:56:37.416Z,102092.56
2019-03-30T01:57:39.623Z,102090.87
2019-03-30T01:58:41.934Z,102098.33
2019-03-30T01:59:44.169Z,102093.48
2019-03-30T02:00:46.739Z,102094.80
2019-03-30T02:01:48.964Z,102100.39
2019-03-30T02:02:51.173Z,102096.09
2019-03-30T02:03:53.427Z,102089.02
2019-03-30T02:04:58.389Z,102089.95
2019-03-30T02:06:00.603Z,102091.63
2019-03-30T02:07:02.830Z,102092.19
2019-03-30T02:08:08.053Z,102093.87
2019-03-30T02:09:10.307Z,102087.72
2019-03-30T02:10:12.580Z,102089.41
2019-03-30T02:11:14.758Z,102083.80
2019-03-30T02:12:17.071Z,102089.95
2019-03-30T02:13:19.271Z,102082.50
2019-03-30T02:14:21.495Z,102085.48
2019-03-30T02:15:23.723Z,102083.43
2019-03-30T02:16:25.935Z,102087.72
2019-03-30T02:17:28.153Z,102078.59
2019-03-30T02:18:30.347Z,102076.35
2019-03-30T02:19:34.156Z,102075.98
2019-03-30T02:20:37.477Z,102078.20
2019-03-30T02:21:39.676Z,102074.30
2019-03-30T02:22:41.911Z,102075.42
2019-03-30T02:23:44.218Z,102073.75
2019-03-30T02:24:46.464Z,102075.98
2019-03-30T02:25:48.693Z,102075.05
2019-03-30T02:26:50.915Z,102072.44
2019-03-30T02:27:53.118Z,102071.14
2019-03-30T02:28:55.345Z,102071.14
2019-03-30T02:29:57.541Z,102066.84
2019-03-30T02:30:59.750Z,102063.31
2019-03-30T02:32:02.070Z,102065.54
2019-03-30T02:33:04.267Z,102064.23
2019-03-30T02:34:06.512Z,102060.70
2019-03-30T02:35:09.733Z,102063.69
2019-03-30T02:36:11.974Z,102060.15
2019-03-30T02:37:14.163Z,102068.15
2019-03-30T02:38:16.381Z,102067.22
2019-03-30T02:39:18.809Z,102064.61
2019-03-30T02:40:21.026Z,102067.60
2019-03-30T02:41:23.248Z,102064.23
2019-03-30T02:42:25.446Z,102063.69
2019-03-30T02:43:27.646Z,102060.15
2019-03-30T02:44:29.881Z,102058.09
2019-03-30T02:45:32.127Z,102059.02
2019-03-30T02:46:34.314Z,102062.00
2019-03-30T02:47:36.515Z,102062.00
2019-03-30T02:48:38.724Z,102063.31
2019-03-30T02:49:41.877Z,102063.69
2019-03-30T02:50:49.984Z,102053.63
2019-03-30T02:51:47.961Z,102058.84
2019-03-30T02:52:50.173Z,102058.84
2019-03-30T02:53:52.362Z,102057.92
2019-03-30T02:54:54.589Z,102055.86
2019-03-30T02:55:56.792Z,102056.23
2019-03-30T02:56:59.006Z,102051.39
2019-03-30T02:58:01.210Z,102051.77
2019-03-30T02:59:06.461Z,102047.48
2019-03-30T03:00:09.932Z,102051.02
2019-03-30T03:01:12.128Z,102051.02
2019-03-30T03:02:15.670Z,102054.55
2019-03-30T03:03:17.851Z,102048.03
2019-03-30T03:04:20.074Z,102049.71
2019-03-30T03:05:22.279Z,102045.25
2019-03-30T03:06:24.482Z,102049.54
2019-03-30T03:07:26.692Z,102048.78
2019-03-30T03:08:29.066Z,102046.17
2019-03-30T03:09:31.313Z,102042.64
2019-03-30T03:10:33.511Z,102041.88
2019-03-30T03:11:35.741Z,102044.49
2019-03-30T03:12:39.877Z,102043.56
2019-03-30T03:13:43.214Z,102045.25
2019-03-30T03:14:47.875Z,102043.39
2019-03-30T03:15:50.088Z,102038.17
2019-03-30T03:16:52.307Z,102043.95
2019-03-30T03:17:54.505Z,102050.47
2019-03-30T03:18:56.696Z,102048.23
2019-03-30T03:19:58.923Z,102048.78
2019-03-30T03:21:07.928Z,102043.56
2019-03-30T03:22:05.007Z,102039.48
2019-03-30T03:23:07.218Z,102046.17
2019-03-30T03:24:09.439Z,102040.03
2019-03-30T03:25:11.679Z,102034.81
2019-03-30T03:26:13.889Z,102040.03
2019-03-30T03:27:16.111Z,102035.19
2019-03-30T03:28:18.349Z,102032.20
2019-03-30T03:29:20.569Z,102033.51
2019-03-30T03:30:22.808Z,102026.81
2019-03-30T03:31:25.021Z,102026.98
2019-03-30T03:32:27.233Z,102025.12
2019-03-30T03:33:29.441Z,102030.52
2019-03-30T03:34:31.639Z,102032.20
2019-03-30T03:35:33.885Z,102022.90
2019-03-30T03:36:36.093Z,102023.83
2019-03-30T03:37:45.590Z,102021.22
2019-03-30T03:38:42.168Z,102023.45
2019-03-30T03:39:44.424Z,102022.52
2019-03-30T03:40:46.694Z,102021.94
2019-03-30T03:41:48.915Z,102021.22
2019-03-30T03:42:51.105Z,102013.77
2019-03-30T03:43:53.297Z,102014.11
2019-03-30T03:44:55.524Z,102018.61
2019-03-30T03:45:57.746Z,102017.68
2019-03-30T03:46:59.968Z,102009.85
2019-03-30T03:48:03.101Z,102012.08
2019-03-30T03:49:05.296Z,102011.16
2019-03-30T03:50:07.509Z,102003.33
2019-03-30T03:51:24.809Z,102002.02
2019-03-30T03:52:13.585Z,102000.72
2019-03-30T03:53:16.027Z,101995.50
2019-03-30T03:54:18.257Z,102001.06
2019-03-30T03:55:20.476Z,101996.81
2019-03-30T03:56:22.732Z,102003.33
2019-03-30T03:57:24.933Z,101996.22
2019-03-30T03:58:27.149Z,101996.81
2019-03-30T03:59:29.348Z,101991.94
2019-03-30T04:00:33.169Z,101991.94
2019-03-30T04:01:35.374Z,101989.32
2019-03-30T04:02:37.646Z,101988.39
2019-03-30T04:03:39.809Z,101987.67
2019-03-30T04:04:41.996Z,101985.41
2019-03-30T04:05:44.215Z,101985.41
2019-03-30T04:06:46.574Z,101989.70
2019-03-30T04:07:48.788Z,101994.20
2019-03-30T04:08:50.991Z,101995.13
2019-03-30T04:09:53.191Z,101988.98
2019-03-30T04:10:55.410Z,101994.55
2019-03-30T04:11:57.624Z,101988.39
2019-03-30T04:12:59.995Z,101988.39
2019-03-30T04:14:03.766Z,101985.41
2019-03-30T04:15:05.956Z,101983.55
2019-03-30T04:16:08.205Z,101985.41
2019-03-30T04:17:10.423Z,101984.48
2019-03-30T04:18:12.597Z,101985.41
2019-03-30T04:19:17.594Z,101988.39
2019-03-30T04:20:19.796Z,101981.33
2019-03-30T04:21:22.004Z,101984.48
2019-03-30T04:22:24.206Z,101977.96
2019-03-30T04:23:26.404Z,101980.57
2019-03-30T04:24:28.531Z,101973.50
2019-03-30T04:25:30.740Z,101971.44
2019-03-30T04:26:32.980Z,101970.89
2019-03-30T04:27:35.188Z,101975.73
2019-03-30T04:28:39.881Z,101969.58
2019-03-30T04:29:42.071Z,101975.35
2019-03-30T04:30:44.289Z,101971.81
2019-03-30T04:31:46.491Z,101973.50
2019-03-30T04:32:48.691Z,101969.20
2019-03-30T04:33:51.073Z,101972.19
2019-03-30T04:34:53.282Z,101977.03
2019-03-30T04:35:55.500Z,101972.57
2019-03-30T04:37:00.579Z,101973.88
2019-03-30T04:38:02.775Z,101973.50
2019-03-30T04:39:05.391Z,101966.97
2019-03-30T04:40:09.711Z,101964.75
2019-03-30T04:41:11.945Z,101969.41
2019-03-30T04:42:14.160Z,101969.58
2019-03-30T04:43:16.359Z,101970.72
2019-03-30T04:44:18.574Z,101969.41
2019-03-30T04:45:20.771Z,101965.67
2019-03-30T04:46:22.979Z,101968.66
2019-03-30T04:47:25.184Z,101960.28
2019-03-30T04:48:29.491Z,101966.05
2019-03-30T04:49:31.243Z,101966.05
2019-03-30T04:50:33.459Z,101963.27
2019-03-30T04:51:35.671Z,101962.14
2019-03-30T04:52:37.875Z,101960.83
2019-03-30T04:53:40.079Z,101959.36
2019-03-30T04:54:42.297Z,101956.37
2019-03-30T04:55:44.605Z,101955.45
2019-03-30T04:56:46.830Z,101952.83
2019-03-30T04:57:49.707Z,101951.91
2019-03-30T04:58:52.225Z,101955.45
2019-03-30T04:59:54.414Z,101951.91
2019-03-30T05:00:56.626Z,101950.22
2019-03-30T05:01:58.829Z,101951.70
2019-03-30T05:03:01.055Z,101950.60
2019-03-30T05:04:03.313Z,101948.55
2019-03-30T05:05:05.452Z,101942.78
2019-03-30T05:06:07.702Z,101947.62
2019-03-30T05:07:09.875Z,101941.09
2019-03-30T05:08:12.081Z,101944.08
2019-03-30T05:09:14.262Z,101941.47
2019-03-30T05:10:16.470Z,101939.79
2019-03-30T05:11:18.684Z,101937.02
2019-03-30T05:12:21.496Z,101941.85
2019-03-30T05:13:23.802Z,101940.72
2019-03-30T05:14:26.103Z,101930.48
2019-03-30T05:15:28.309Z,101939.24
2019-03-30T05:16:30.524Z,101937.56
2019-03-30T05:17:46.268Z,101935.33
2019-03-30T05:18:36.683Z,101935.70
2019-03-30T05:19:38.891Z,101934.02
2019-03-30T05:20:41.090Z,101935.33
2019-03-30T05:21:43.315Z,101932.72
2019-03-30T05:22:45.516Z,101934.02
2019-03-30T05:23:47.742Z,101931.25
2019-03-30T05:24:51.369Z,101932.72
2019-03-30T05:25:53.579Z,101934.41
2019-03-30T05:26:55.828Z,101932.72
2019-03-30T05:27:58.068Z,101934.02
2019-03-30T05:29:00.320Z,101932.72
2019-03-30T05:30:02.542Z,101930.48
2019-03-30T05:31:04.739Z,101927.33
2019-03-30T05:32:06.968Z,101931.80
2019-03-30T05:33:09.263Z,101928.26
2019-03-30T05:34:11.382Z,101922.12
2019-03-30T05:35:13.598Z,101922.12
2019-03-30T05:36:15.798Z,101928.26
2019-03-30T05:37:18.025Z,101923.97
2019-03-30T05:38:20.228Z,101911.68
2019-03-30T05:39:25.342Z,101916.52
2019-03-30T05:40:27.575Z,101921.73
2019-03-30T05:41:29.767Z,101921.19
2019-03-30T05:42:32.164Z,101920.43
2019-03-30T05:43:34.391Z,101924.34
2019-03-30T05:44:36.591Z,101923.04
2019-03-30T05:45:38.786Z,101919.67
2019-03-30T05:46:41.011Z,101921.73
2019-03-30T05:47:43.219Z,101920.43
2019-03-30T05:48:45.422Z,101924.89
2019-03-30T05:49:48.634Z,101922.66
2019-03-30T05:50:50.839Z,101920.81
2019-03-30T05:51:53.081Z,101913.91
2019-03-30T05:52:55.219Z,101915.59
2019-03-30T05:53:57.405Z,101920.81
2019-03-30T05:54:59.630Z,101920.05
2019-03-30T05:56:01.837Z,101921.73
2019-03-30T05:57:04.034Z,101921.36
2019-03-30T05:58:06.173Z,101919.13
2019-03-30T05:59:08.371Z,101922.12
2019-03-30T06:00:12.291Z,101917.83
2019-03-30T06:01:14.506Z,101922.66
2019-03-30T06:02:16.736Z,101917.83
2019-03-30T06:03:18.966Z,101921.36
2019-03-30T06:04:21.089Z,101920.43
2019-03-30T06:05:23.291Z,101921.73
2019-03-30T06:06:25.484Z,101920.05
2019-03-30T06:07:27.703Z,101918.20
2019-03-30T06:08:29.925Z,101912.61
2019-03-30T06:09:32.122Z,101915.22
2019-03-30T06:10:34.321Z,101916.52
2019-03-30T06:11:36.534Z,101908.14
2019-03-30T06:12:38.734Z,101905.70
2019-03-30T06:13:40.945Z,101905.16
2019-03-30T06:14:43.161Z,101903.47
2019-03-30T06:15:45.358Z,101906.08
2019-03-30T06:16:47.556Z,101900.87
2019-03-30T06:17:50.092Z,101901.80
2019-03-30T06:18:52.456Z,101904.78
2019-03-30T06:19:57.060Z,101903.47
2019-03-30T06:20:59.290Z,101901.63
2019-03-30T06:22:01.515Z,101901.63
2019-03-30T06:23:03.718Z,101897.71
2019-03-30T06:24:06.024Z,101900.31
2019-03-30T06:25:08.235Z,101897.71
2019-03-30T06:26:13.613Z,101904.78
2019-03-30T06:27:15.878Z,101897.71
2019-03-30T06:28:18.084Z,101890.81
2019-03-30T06:29:20.304Z,101888.95
2019-03-30T06:30:22.510Z,101896.03
2019-03-30T06:31:24.721Z,101891.56
2019-03-30T06:32:26.943Z,101894.72
2019-03-30T06:33:30.203Z,101887.66
2019-03-30T06:34:32.367Z,101896.03
2019-03-30T06:35:34.570Z,101898.26
2019-03-30T06:36:36.776Z,101896.03
2019-03-30T06:37:41.336Z,101895.27
2019-03-30T06:38:43.539Z,101892.49
2019-03-30T06:39:45.755Z,101888.20
2019-03-30T06:40:47.984Z,101888.20
2019-03-30T06:41:50.188Z,101888.58
2019-03-30T06:42:53.733Z,101890.81
2019-03-30T06:43:55.950Z,101888.20
2019-03-30T06:44:58.158Z,101890.43
2019-03-30T06:46:03.066Z,101893.97
2019-03-30T06:47:05.308Z,101885.21
2019-03-30T06:48:07.549Z,101886.14
2019-03-30T06:49:09.748Z,101893.04
2019-03-30T06:50:13.337Z,101894.52
2019-03-30T06:51:15.464Z,101891.36
2019-03-30T06:52:17.658Z,101885.77
2019-03-30T06:53:19.922Z,101888.37
2019-03-30T06:54:22.148Z,101887.98
2019-03-30T06:55:24.381Z,101892.28
2019-03-30T06:56:26.587Z,101893.59
2019-03-30T06:57:28.834Z,101887.61
2019-03-30T06:58:31.023Z,101889.30
2019-03-30T06:59:33.232Z,101886.69
2019-03-30T07:00:35.427Z,101890.59
2019-03-30T07:01:37.631Z,101885.00
2019-03-30T07:02:39.855Z,101879.78
2019-03-30T07:03:42.054Z,101880.16
2019-03-30T07:04:44.259Z,101868.80
2019-03-30T07:05:46.476Z,101867.50
2019-03-30T07:06:48.693Z,101875.49
2019-03-30T07:07:50.948Z,101874.56
2019-03-30T07:08:55.928Z,101874.95
2019-03-30T07:09:58.131Z,101871.41
2019-03-30T07:11:00.519Z,101873.27
2019-03-30T07:12:05.509Z,101876.80
2019-03-30T07:13:07.760Z,101876.80
2019-03-30T07:14:10.147Z,101870.66
2019-03-30T07:15:13.972Z,101873.64
2019-03-30T07:16:16.193Z,101874.19
2019-03-30T07:17:18.391Z,101870.27
2019-03-30T07:18:20.963Z,101873.43
2019-03-30T07:19:23.160Z,101868.97
2019-03-30T07:20:25.571Z,101865.05
2019-03-30T07:21:27.785Z,101866.53
2019-03-30T07:22:29.997Z,101873.05
2019-03-30T07:23:32.231Z,101869.52
2019-03-30T07:24:34.364Z,101865.60
2019-03-30T07:25:36.613Z,101862.45
2019-03-30T07:26:41.591Z,101859.08
2019-03-30T07:27:43.820Z,101860.01
2019-03-30T07:28:47.269Z,101857.23
2019-03-30T07:29:49.684Z,101855.92
2019-03-30T07:30:54.207Z,101860.01
2019-03-30T07:31:56.427Z,101858.32
2019-03-30T07:32:58.627Z,101855.16
2019-03-30T07:34:00.806Z,101857.02
2019-03-30T07:35:03.027Z,101856.64
2019-03-30T07:36:05.229Z,101861.86
2019-03-30T07:37:07.446Z,101858.70
2019-03-30T07:38:09.675Z,101855.72
2019-03-30T07:39:11.977Z,101857.39
2019-03-30T07:40:14.197Z,101854.78
2019-03-30T07:41:16.398Z,101856.64
2019-03-30T07:42:18.645Z,101854.78
2019-03-30T07:43:20.847Z,101852.73
2019-03-30T07:44:23.191Z,101854.78
2019-03-30T07:45:25.401Z,101853.48
2019-03-30T07:46:27.603Z,101852.73
2019-03-30T07:47:29.813Z,101850.12
2019-03-30T07:48:34.991Z,101847.13
2019-03-30T07:49:37.211Z,101850.12
2019-03-30T07:50:39.434Z,101845.28
2019-03-30T07:51:41.644Z,101846.20
2019-03-30T07:52:43.845Z,101851.42
2019-03-30T07:53:46.153Z,101844.90
2019-03-30T07:54:48.367Z,101848.81
2019-03-30T07:55:50.587Z,101854.03
2019-03-30T07:57:04.269Z,101846.20
2019-03-30T07:57:56.678Z,101855.91
2019-03-30T07:58:58.886Z,101854.95
2019-03-30T08:00:01.110Z,101853.65
2019-03-30T08:01:03.311Z,101852.00
2019-03-30T08:02:05.522Z,101847.13
2019-03-30T08:03:07.729Z,101849.39
2019-03-30T08:04:09.863Z,101847.13
2019-03-30T08:05:12.127Z,101850.32
2019-03-30T08:06:14.359Z,101845.48
2019-03-30T08:07:16.637Z,101846.41
2019-03-30T08:08:18.777Z,101852.00
2019-03-30T08:09:21.008Z,101847.33
2019-03-30T08:10:23.310Z,101850.70
2019-03-30T08:11:25.441Z,101852.55
2019-03-30T08:12:27.655Z,101846.78
2019-03-30T08:13:29.863Z,101847.33
2019-03-30T08:14:32.181Z,101847.33
2019-03-30T08:15:34.421Z,101846.20
2019-03-30T08:16:36.593Z,101843.42
2019-03-30T08:17:38.792Z,101848.80
2019-03-30T08:18:41.094Z,101841.35
2019-03-30T08:19:43.319Z,101836.68
2019-03-30T08:20:45.517Z,101843.20
2019-03-30T08:21:47.719Z,101839.67
2019-03-30T08:22:49.909Z,101838.75
2019-03-30T08:23:52.043Z,101834.83
2019-03-30T08:24:55.503Z,101831.30
2019-03-30T08:25:57.649Z,101832.60
2019-03-30T08:26:59.860Z,101837.06
2019-03-30T08:28:02.163Z,101828.31
2019-03-30T08:29:04.392Z,101834.08
2019-03-30T08:30:06.621Z,101822.70
2019-03-30T08:31:11.282Z,101826.63
2019-03-30T08:32:13.498Z,101825.32
2019-03-30T08:33:15.712Z,101826.63
2019-03-30T08:34:17.924Z,101833.14
2019-03-30T08:35:20.154Z,101830.53
2019-03-30T08:36:22.363Z,101819.17
2019-03-30T08:37:24.566Z,101820.48
2019-03-30T08:38:26.788Z,101821.03
2019-03-30T08:39:28.998Z,101826.63
2019-03-30T08:40:31.251Z,101821.95
2019-03-30T08:41:33.458Z,101821.41
2019-03-30T08:42:35.654Z,101818.80
2019-03-30T08:43:37.872Z,101819.72
2019-03-30T08:44:40.097Z,101822.33
2019-03-30T08:45:42.329Z,101818.42
2019-03-30T08:46:44.584Z,101819.34
2019-03-30T08:47:46.788Z,101818.03
2019-03-30T08:48:48.995Z,101818.42
2019-03-30T08:49:51.206Z,101816.73
2019-03-30T08:50:53.449Z,101808.91
2019-03-30T08:51:55.660Z,101819.34
2019-03-30T08:52:57.865Z,101816.73
2019-03-30T08:54:00.084Z,101807.98
2019-03-30T08:55:02.290Z,101810.59
2019-03-30T08:56:06.283Z,101807.98
2019-03-30T08:57:08.431Z,101812.44
2019-03-30T08:58:10.737Z,101808.52
2019-03-30T08:59:13.018Z,101811.13
2019-03-30T09:00:15.215Z,101816.36
2019-03-30T09:01:17.452Z,101808.14
2019-03-30T09:02:19.664Z,101807.77
2019-03-30T09:03:21.882Z,101807.38
2019-03-30T09:04:24.099Z,101811.68
2019-03-30T09:05:27.262Z,101805.54
2019-03-30T09:06:29.443Z,101805.54
2019-03-30T09:07:31.668Z,101803.85
2019-03-30T09:08:33.945Z,101808.14
2019-03-30T09:09:36.186Z,101800.48
2019-03-30T09:10:38.400Z,101806.08
2019-03-30T09:11:43.261Z,101799.56
2019-03-30T09:12:44.474Z,101798.25
2019-03-30T09:13:46.776Z,101794.72
2019-03-30T09:14:49.013Z,101796.95
2019-03-30T09:15:51.224Z,101796.56
2019-03-30T09:16:53.444Z,101791.35
2019-03-30T09:17:55.671Z,101792.66
2019-03-30T09:18:57.973Z,101790.05
2019-03-30T09:20:00.431Z,101786.52
2019-03-30T09:21:02.704Z,101786.13
2019-03-30T09:22:04.930Z,101787.81
2019-03-30T09:23:07.136Z,101782.22
2019-03-30T09:24:11.455Z,101786.68
2019-03-30T09:25:13.657Z,101781.45
2019-03-30T09:26:16.803Z,101781.84
2019-03-30T09:27:19.095Z,101784.06
2019-03-30T09:28:21.395Z,101778.84
2019-03-30T09:29:23.610Z,101777.55
2019-03-30T09:30:25.846Z,101771.02
2019-03-30T09:31:28.040Z,101773.25
2019-03-30T09:32:30.281Z,101774.17
2019-03-30T09:33:32.486Z,101771.56
2019-03-30T09:34:34.671Z,101769.72
2019-03-30T09:35:38.879Z,101768.95
2019-03-30T09:36:40.842Z,101771.95
2019-03-30T09:37:43.083Z,101768.95
2019-03-30T09:38:45.297Z,101765.42
2019-03-30T09:39:47.501Z,101766.34
2019-03-30T09:40:49.736Z,101762.00
2019-03-30T09:41:51.931Z,101770.02
2019-03-30T09:42:54.149Z,101768.27
2019-03-30T09:43:56.361Z,101765.98
2019-03-30T09:44:58.572Z,101760.59
2019-03-30T09:46:03.523Z,101766.19
2019-03-30T09:47:05.737Z,101765.05
2019-03-30T09:48:07.978Z,101769.89
2019-03-30T09:49:10.177Z,101768.36
2019-03-30T09:50:12.368Z,101767.44
2019-03-30T09:51:14.562Z,101767.60
2019-03-30T09:52:16.779Z,101765.75
2019-03-30T09:53:19.016Z,101763.31
2019-03-30T09:54:24.074Z,101750.47
2019-03-30T09:55:27.217Z,101760.31
2019-03-30T09:56:28.964Z,101753.95
2019-03-30T09:57:31.166Z,101752.48
2019-03-30T09:58:33.386Z,101747.42
2019-03-30T09:59:35.588Z,101754.33
2019-03-30T10:00:37.806Z,101749.49
2019-03-30T10:01:40.016Z,101750.20
2019-03-30T10:02:42.339Z,101746.04
2019-03-30T10:03:44.591Z,101742.99
2019-03-30T10:04:46.789Z,101739.18
2019-03-30T10:05:48.994Z,101742.69
2019-03-30T10:06:51.211Z,101741.78
2019-03-30T10:07:53.428Z,101738.80
2019-03-30T10:08:58.011Z,101736.02
2019-03-30T10:10:00.395Z,101742.64
2019-03-30T10:11:02.615Z,101735.12
2019-03-30T10:12:04.823Z,101737.79
2019-03-30T10:13:07.035Z,101734.31
2019-03-30T10:14:09.439Z,101732.66
2019-03-30T10:15:11.643Z,101736.79
2019-03-30T10:16:13.837Z,101732.17
2019-03-30T10:17:16.046Z,101733.25
2019-03-30T10:18:18.247Z,101731.78
2019-03-30T10:19:20.467Z,101733.64
2019-03-30T10:20:22.661Z,101729.94
2019-03-30T10:21:24.803Z,101724.87
2019-03-30T10:22:27.009Z,101729.34
2019-03-30T10:23:29.229Z,101728.80
2019-03-30T10:24:37.961Z,101723.95
2019-03-30T10:25:36.885Z,101723.03
2019-03-30T10:26:39.099Z,101717.42
2019-03-30T10:27:41.348Z,101710.90
2019-03-30T10:28:46.858Z,101714.81
2019-03-30T10:29:47.463Z,101717.42
2019-03-30T10:30:49.764Z,101717.59
2019-03-30T10:31:51.986Z,101710.36
2019-03-30T10:32:54.192Z,101706.60
2019-03-30T10:33:56.398Z,101708.89
2019-03-30T10:34:58.661Z,101705.84
2019-03-30T10:36:00.869Z,101703.92
2019-03-30T10:37:03.075Z,101707.59
2019-03-30T10:38:05.300Z,101711.52
2019-03-30T10:39:07.517Z,101703.91
2019-03-30T10:40:11.523Z,101699.06
2019-03-30T10:41:13.723Z,101702.76
2019-03-30T10:42:15.936Z,101706.30
2019-03-30T10:43:18.139Z,101693.23
2019-03-30T10:44:20.369Z,101691.93
2019-03-30T10:45:22.630Z,101689.86
2019-03-30T10:46:24.841Z,101686.70
2019-03-30T10:47:27.053Z,101683.72
2019-03-30T10:48:29.253Z,101687.63
2019-03-30T10:49:31.558Z,101681.42
2019-03-30T10:50:33.767Z,101680.87
2019-03-30T10:51:35.979Z,101677.73
2019-03-30T10:52:38.193Z,101681.80
2019-03-30T10:53:40.418Z,101677.89
2019-03-30T10:54:52.479Z,101673.75
2019-03-30T10:55:46.522Z,101673.36
2019-03-30T10:56:48.730Z,101674.13
2019-03-30T10:57:50.937Z,101673.36
2019-03-30T10:58:53.250Z,101669.12
2019-03-30T10:59:55.473Z,101666.90
2019-03-30T11:00:57.700Z,101666.74
2019-03-30T11:01:59.903Z,101664.89
2019-03-30T11:03:02.169Z,101667.19
2019-03-30T11:04:04.383Z,101650.78
2019-03-30T11:05:06.579Z,101661.99
2019-03-30T11:06:08.824Z,101667.76
2019-03-30T11:07:11.034Z,101663.84
2019-03-30T11:08:13.237Z,101666.13
2019-03-30T11:09:15.441Z,101660.91
2019-03-30T11:10:17.649Z,101662.22
2019-03-30T11:11:19.875Z,101655.24
2019-03-30T11:12:22.084Z,101655.22
2019-03-30T11:13:24.303Z,101653.08
2019-03-30T11:14:28.083Z,101659.00
2019-03-30T11:15:33.779Z,101654.60
2019-03-30T11:16:34.179Z,101659.35
2019-03-30T11:17:36.385Z,101656.17
2019-03-30T11:18:38.594Z,101657.92
2019-03-30T11:19:41.008Z,101646.94
2019-03-30T11:20:43.238Z,101649.32
2019-03-30T11:21:45.458Z,101656.39
2019-03-30T11:22:47.657Z,101646.67
2019-03-30T11:23:49.865Z,101647.59
2019-03-30T11:25:06.310Z,101646.33
2019-03-30T11:25:55.943Z,101650.24
2019-03-30T11:26:58.153Z,101650.63
2019-03-30T11:28:00.355Z,101653.62
2019-03-30T11:29:02.570Z,101642.48
2019-03-30T11:30:04.794Z,101645.47
2019-03-30T11:31:07.001Z,101648.46
2019-03-30T11:32:11.033Z,101644.77
2019-03-30T11:33:13.235Z,101650.59
2019-03-30T11:34:15.446Z,101641.46
2019-03-30T11:35:17.653Z,101647.06
2019-03-30T11:36:19.887Z,101634.73
2019-03-30T11:37:22.096Z,101638.47
2019-03-30T11:38:24.303Z,101638.78
2019-03-30T11:39:26.510Z,101638.72
2019-03-30T11:40:28.830Z,101639.58
2019-03-30T11:41:31.056Z,101637.73
2019-03-30T11:42:33.244Z,101637.53
2019-03-30T11:43:35.477Z,101636.96
2019-03-30T11:44:37.691Z,101635.47
2019-03-30T11:45:39.903Z,101636.39
2019-03-30T11:46:42.129Z,101633.62
2019-03-30T11:47:44.335Z,101631.33
2019-03-30T11:48:46.527Z,101631.86
2019-03-30T11:49:48.730Z,101628.48
2019-03-30T11:50:53.773Z,101637.02
2019-03-30T11:51:55.987Z,101625.88